sensor_id;sensor_type;location;lat;lon;timestamp;P1;durP1;ratioP1;P2;durP2;ratioP2
11608;SDS011;5860;52.018;8.536;2023-06-22T00:00:11;5.87;;;4.60;;
11608;SDS011;5860;52.018;8.536;2023-06-22T00:02:38;8.38;;;5.43;;
11608;SDS011;5860;52.018;8.536;2023-06-22T00:05:06;7.63;;;5.20;;
11608;SDS011;5860;52.018;8.536;2023-06-22T00:07:33;9.05;;;4.78;;
11608;SDS011;5860;52.018;8.536;2023-06-22T00:10:00;8.03;;;5.53;;
11608;SDS011;5860;52.018;8.536;2023-06-22T00:12:27;7.13;;;5.90;;
11608;SDS011;5860;52.018;8.536;2023-06-22T00:14:54;7.20;;;6.00;;
11608;SDS011;5860;52.018;8.536;2023-06-22T00:17:20;17.93;;;6.30;;
11608;SDS011;5860;52.018;8.536;2023-06-22T00:19:48;10.80;;;6.22;;
11608;SDS011;5860;52.018;8.536;2023-06-22T00:22:19;6.53;;;5.93;;
11608;SDS011;5860;52.018;8.536;2023-06-22T00:24:55;6.60;;;5.90;;
11608;SDS011;5860;52.018;8.536;2023-06-22T00:27:22;6.35;;;5.50;;
11608;SDS011;5860;52.018;8.536;2023-06-22T00:29:49;6.60;;;6.00;;
11608;SDS011;5860;52.018;8.536;2023-06-22T00:32:16;7.07;;;6.37;;
11608;SDS011;5860;52.018;8.536;2023-06-22T00:34:43;8.23;;;6.10;;
11608;SDS011;5860;52.018;8.536;2023-06-22T00:37:10;7.40;;;6.43;;
11608;SDS011;5860;52.018;8.536;2023-06-22T00:39:37;7.03;;;6.32;;
11608;SDS011;5860;52.018;8.536;2023-06-22T00:42:04;6.97;;;6.23;;
11608;SDS011;5860;52.018;8.536;2023-06-22T00:44:31;6.90;;;6.20;;
11608;SDS011;5860;52.018;8.536;2023-06-22T00:46:58;8.63;;;6.83;;
11608;SDS011;5860;52.018;8.536;2023-06-22T00:49:26;10.27;;;7.93;;
11608;SDS011;5860;52.018;8.536;2023-06-22T00:51:56;8.20;;;7.27;;
11608;SDS011;5860;52.018;8.536;2023-06-22T00:54:24;9.57;;;7.60;;
11608;SDS011;5860;52.018;8.536;2023-06-22T00:56:54;9.97;;;8.17;;
11608;SDS011;5860;52.018;8.536;2023-06-22T00:59:23;8.60;;;7.70;;
11608;SDS011;5860;52.018;8.536;2023-06-22T01:01:50;9.67;;;8.67;;
11608;SDS011;5860;52.018;8.536;2023-06-22T01:04:17;10.48;;;9.05;;
11608;SDS011;5860;52.018;8.536;2023-06-22T01:06:51;9.67;;;8.77;;
11608;SDS011;5860;52.018;8.536;2023-06-22T01:09:29;10.40;;;9.33;;
11608;SDS011;5860;52.018;8.536;2023-06-22T01:12:01;10.93;;;9.17;;
11608;SDS011;5860;52.018;8.536;2023-06-22T01:14:47;10.55;;;9.45;;
11608;SDS011;5860;52.018;8.536;2023-06-22T01:17:21;10.33;;;9.27;;
11608;SDS011;5860;52.018;8.536;2023-06-22T01:19:50;11.37;;;10.37;;
11608;SDS011;5860;52.018;8.536;2023-06-22T01:22:23;11.40;;;9.43;;
11608;SDS011;5860;52.018;8.536;2023-06-22T01:25:07;10.87;;;9.77;;
11608;SDS011;5860;52.018;8.536;2023-06-22T01:27:51;12.00;;;10.83;;
11608;SDS011;5860;52.018;8.536;2023-06-22T01:30:27;12.00;;;10.77;;
11608;SDS011;5860;52.018;8.536;2023-06-22T01:32:56;13.53;;;12.23;;
11608;SDS011;5860;52.018;8.536;2023-06-22T01:35:24;13.17;;;11.80;;
11608;SDS011;5860;52.018;8.536;2023-06-22T01:37:52;14.63;;;11.80;;
11608;SDS011;5860;52.018;8.536;2023-06-22T01:40:19;13.00;;;11.70;;
11608;SDS011;5860;52.018;8.536;2023-06-22T01:42:47;14.23;;;12.70;;
11608;SDS011;5860;52.018;8.536;2023-06-22T01:45:15;13.23;;;11.93;;
11608;SDS011;5860;52.018;8.536;2023-06-22T01:47:43;13.90;;;12.60;;
11608;SDS011;5860;52.018;8.536;2023-06-22T01:50:11;14.87;;;12.90;;
11608;SDS011;5860;52.018;8.536;2023-06-22T01:52:39;13.93;;;12.63;;
11608;SDS011;5860;52.018;8.536;2023-06-22T01:55:05;13.17;;;11.87;;
11608;SDS011;5860;52.018;8.536;2023-06-22T01:57:34;14.83;;;12.27;;
11608;SDS011;5860;52.018;8.536;2023-06-22T02:02:38;13.00;;;11.80;;
11608;SDS011;5860;52.018;8.536;2023-06-22T02:05:10;13.90;;;12.60;;
11608;SDS011;5860;52.018;8.536;2023-06-22T02:07:46;15.80;;;13.30;;
11608;SDS011;5860;52.018;8.536;2023-06-22T02:10:19;14.63;;;12.97;;
11608;SDS011;5860;52.018;8.536;2023-06-22T02:12:48;15.23;;;13.10;;
11608;SDS011;5860;52.018;8.536;2023-06-22T02:15:16;13.83;;;12.57;;
11608;SDS011;5860;52.018;8.536;2023-06-22T02:17:43;14.93;;;13.43;;
11608;SDS011;5860;52.018;8.536;2023-06-22T02:20:12;15.33;;;13.73;;
11608;SDS011;5860;52.018;8.536;2023-06-22T02:22:42;14.43;;;13.03;;
11608;SDS011;5860;52.018;8.536;2023-06-22T02:25:09;14.33;;;12.93;;
11608;SDS011;5860;52.018;8.536;2023-06-22T02:27:36;14.67;;;13.20;;
11608;SDS011;5860;52.018;8.536;2023-06-22T02:30:09;15.37;;;13.43;;
11608;SDS011;5860;52.018;8.536;2023-06-22T02:32:37;14.87;;;13.37;;
11608;SDS011;5860;52.018;8.536;2023-06-22T02:35:08;19.10;;;13.93;;
11608;SDS011;5860;52.018;8.536;2023-06-22T02:37:36;15.60;;;14.10;;
11608;SDS011;5860;52.018;8.536;2023-06-22T02:40:08;15.37;;;13.80;;
11608;SDS011;5860;52.018;8.536;2023-06-22T02:42:36;16.57;;;14.87;;
11608;SDS011;5860;52.018;8.536;2023-06-22T02:45:03;16.03;;;14.40;;
11608;SDS011;5860;52.018;8.536;2023-06-22T02:47:30;16.20;;;14.57;;
11608;SDS011;5860;52.018;8.536;2023-06-22T02:49:58;15.90;;;14.50;;
11608;SDS011;5860;52.018;8.536;2023-06-22T02:52:25;15.93;;;14.33;;
11608;SDS011;5860;52.018;8.536;2023-06-22T02:54:52;17.30;;;14.60;;
11608;SDS011;5860;52.018;8.536;2023-06-22T02:57:18;17.67;;;15.77;;
11608;SDS011;5860;52.018;8.536;2023-06-22T02:59:45;15.73;;;14.03;;
11608;SDS011;5860;52.018;8.536;2023-06-22T03:02:12;16.60;;;15.10;;
11608;SDS011;5860;52.018;8.536;2023-06-22T03:04:39;17.03;;;15.23;;
11608;SDS011;5860;52.018;8.536;2023-06-22T03:07:06;17.10;;;15.10;;
11608;SDS011;5860;52.018;8.536;2023-06-22T03:09:33;16.70;;;14.97;;
11608;SDS011;5860;52.018;8.536;2023-06-22T03:12:00;18.23;;;15.47;;
11608;SDS011;5860;52.018;8.536;2023-06-22T03:14:28;15.87;;;14.27;;
11608;SDS011;5860;52.018;8.536;2023-06-22T03:16:55;18.40;;;16.37;;
11608;SDS011;5860;52.018;8.536;2023-06-22T03:19:28;17.53;;;15.70;;
11608;SDS011;5860;52.018;8.536;2023-06-22T03:21:56;16.93;;;15.17;;
11608;SDS011;5860;52.018;8.536;2023-06-22T03:24:23;17.67;;;15.87;;
11608;SDS011;5860;52.018;8.536;2023-06-22T03:26:50;17.50;;;15.47;;
11608;SDS011;5860;52.018;8.536;2023-06-22T03:29:17;17.37;;;15.67;;
11608;SDS011;5860;52.018;8.536;2023-06-22T03:31:44;17.47;;;15.87;;
11608;SDS011;5860;52.018;8.536;2023-06-22T03:34:11;18.30;;;16.30;;
11608;SDS011;5860;52.018;8.536;2023-06-22T03:36:38;16.93;;;15.23;;
11608;SDS011;5860;52.018;8.536;2023-06-22T03:39:05;19.13;;;15.17;;
11608;SDS011;5860;52.018;8.536;2023-06-22T03:41:32;17.50;;;15.67;;
11608;SDS011;5860;52.018;8.536;2023-06-22T03:43:59;16.80;;;15.00;;
11608;SDS011;5860;52.018;8.536;2023-06-22T03:46:25;18.17;;;16.27;;
11608;SDS011;5860;52.018;8.536;2023-06-22T03:48:55;19.53;;;15.67;;
11608;SDS011;5860;52.018;8.536;2023-06-22T03:51:22;17.43;;;15.63;;
11608;SDS011;5860;52.018;8.536;2023-06-22T03:53:49;16.80;;;15.20;;
11608;SDS011;5860;52.018;8.536;2023-06-22T03:56:16;17.63;;;15.63;;
11608;SDS011;5860;52.018;8.536;2023-06-22T03:58:46;17.20;;;15.40;;
11608;SDS011;5860;52.018;8.536;2023-06-22T04:01:13;16.07;;;14.33;;
11608;SDS011;5860;52.018;8.536;2023-06-22T04:03:40;19.33;;;13.93;;
11608;SDS011;5860;52.018;8.536;2023-06-22T04:06:07;15.30;;;13.77;;
11608;SDS011;5860;52.018;8.536;2023-06-22T04:08:34;14.73;;;13.23;;
11608;SDS011;5860;52.018;8.536;2023-06-22T04:11:01;15.03;;;13.53;;
11608;SDS011;5860;52.018;8.536;2023-06-22T04:13:28;15.63;;;14.03;;
11608;SDS011;5860;52.018;8.536;2023-06-22T04:15:55;15.60;;;13.70;;
11608;SDS011;5860;52.018;8.536;2023-06-22T04:18:22;16.03;;;14.37;;
11608;SDS011;5860;52.018;8.536;2023-06-22T04:20:49;18.83;;;14.43;;
11608;SDS011;5860;52.018;8.536;2023-06-22T04:23:15;16.57;;;14.87;;
11608;SDS011;5860;52.018;8.536;2023-06-22T04:25:42;15.80;;;14.17;;
11608;SDS011;5860;52.018;8.536;2023-06-22T04:28:09;17.87;;;14.93;;
11608;SDS011;5860;52.018;8.536;2023-06-22T04:30:38;16.90;;;14.23;;
11608;SDS011;5860;52.018;8.536;2023-06-22T04:33:13;15.80;;;14.17;;
11608;SDS011;5860;52.018;8.536;2023-06-22T04:35:40;15.57;;;13.97;;
11608;SDS011;5860;52.018;8.536;2023-06-22T04:38:07;15.90;;;14.30;;
11608;SDS011;5860;52.018;8.536;2023-06-22T04:40:34;16.03;;;14.13;;
11608;SDS011;5860;52.018;8.536;2023-06-22T04:43:01;15.13;;;13.53;;
11608;SDS011;5860;52.018;8.536;2023-06-22T04:45:28;15.27;;;13.87;;
11608;SDS011;5860;52.018;8.536;2023-06-22T04:47:55;14.17;;;12.67;;
11608;SDS011;5860;52.018;8.536;2023-06-22T04:50:22;16.13;;;13.93;;
11608;SDS011;5860;52.018;8.536;2023-06-22T04:52:50;14.30;;;12.82;;
11608;SDS011;5860;52.018;8.536;2023-06-22T04:55:18;14.95;;;12.95;;
11608;SDS011;5860;52.018;8.536;2023-06-22T04:57:46;16.40;;;14.02;;
11608;SDS011;5860;52.018;8.536;2023-06-22T05:00:16;15.10;;;13.43;;
11608;SDS011;5860;52.018;8.536;2023-06-22T05:02:46;14.82;;;13.32;;
11608;SDS011;5860;52.018;8.536;2023-06-22T05:05:13;16.38;;;14.15;;
11608;SDS011;5860;52.018;8.536;2023-06-22T05:07:41;15.45;;;13.95;;
11608;SDS011;5860;52.018;8.536;2023-06-22T05:10:10;15.93;;;14.32;;
11608;SDS011;5860;52.018;8.536;2023-06-22T05:12:39;16.88;;;14.30;;
11608;SDS011;5860;52.018;8.536;2023-06-22T05:15:06;15.95;;;14.50;;
11608;SDS011;5860;52.018;8.536;2023-06-22T05:17:34;15.98;;;14.27;;
11608;SDS011;5860;52.018;8.536;2023-06-22T05:20:02;15.88;;;13.82;;
11608;SDS011;5860;52.018;8.536;2023-06-22T05:22:32;15.30;;;13.80;;
11608;SDS011;5860;52.018;8.536;2023-06-22T05:24:59;15.50;;;13.88;;
11608;SDS011;5860;52.018;8.536;2023-06-22T05:27:26;15.35;;;13.75;;
11608;SDS011;5860;52.018;8.536;2023-06-22T05:29:53;14.65;;;12.98;;
11608;SDS011;5860;52.018;8.536;2023-06-22T05:32:20;15.15;;;13.63;;
11608;SDS011;5860;52.018;8.536;2023-06-22T05:34:47;15.13;;;12.65;;
11608;SDS011;5860;52.018;8.536;2023-06-22T05:37:14;16.42;;;14.02;;
11608;SDS011;5860;52.018;8.536;2023-06-22T05:39:40;16.38;;;14.40;;
11608;SDS011;5860;52.018;8.536;2023-06-22T05:42:07;15.38;;;13.70;;
11608;SDS011;5860;52.018;8.536;2023-06-22T05:44:36;14.52;;;13.02;;
11608;SDS011;5860;52.018;8.536;2023-06-22T05:47:05;18.35;;;13.98;;
11608;SDS011;5860;52.018;8.536;2023-06-22T05:49:32;15.85;;;14.35;;
11608;SDS011;5860;52.018;8.536;2023-06-22T05:51:59;14.55;;;13.15;;
11608;SDS011;5860;52.018;8.536;2023-06-22T05:54:27;15.35;;;13.63;;
11608;SDS011;5860;52.018;8.536;2023-06-22T05:56:54;13.82;;;12.43;;
11608;SDS011;5860;52.018;8.536;2023-06-22T05:59:21;14.00;;;12.52;;
11608;SDS011;5860;52.018;8.536;2023-06-22T06:01:48;14.82;;;13.20;;
11608;SDS011;5860;52.018;8.536;2023-06-22T06:04:18;14.55;;;13.05;;
11608;SDS011;5860;52.018;8.536;2023-06-22T06:06:45;14.07;;;12.48;;
11608;SDS011;5860;52.018;8.536;2023-06-22T06:09:15;15.80;;;13.32;;
11608;SDS011;5860;52.018;8.536;2023-06-22T06:11:42;14.18;;;12.65;;
11608;SDS011;5860;52.018;8.536;2023-06-22T06:14:09;14.32;;;12.82;;
11608;SDS011;5860;52.018;8.536;2023-06-22T06:16:36;15.02;;;12.70;;
11608;SDS011;5860;52.018;8.536;2023-06-22T06:19:03;13.75;;;12.27;;
11608;SDS011;5860;52.018;8.536;2023-06-22T06:21:29;14.52;;;13.02;;
11608;SDS011;5860;52.018;8.536;2023-06-22T06:23:56;14.23;;;12.93;;
11608;SDS011;5860;52.018;8.536;2023-06-22T06:26:24;14.30;;;12.80;;
11608;SDS011;5860;52.018;8.536;2023-06-22T06:28:56;15.07;;;13.52;;
11608;SDS011;5860;52.018;8.536;2023-06-22T06:31:23;14.10;;;12.63;;
11608;SDS011;5860;52.018;8.536;2023-06-22T06:33:50;14.10;;;12.75;;
11608;SDS011;5860;52.018;8.536;2023-06-22T06:36:17;14.93;;;13.43;;
11608;SDS011;5860;52.018;8.536;2023-06-22T06:38:45;13.88;;;12.68;;
11608;SDS011;5860;52.018;8.536;2023-06-22T06:41:14;13.75;;;12.35;;
11608;SDS011;5860;52.018;8.536;2023-06-22T06:43:41;13.77;;;12.48;;
11608;SDS011;5860;52.018;8.536;2023-06-22T06:46:09;13.13;;;11.88;;
11608;SDS011;5860;52.018;8.536;2023-06-22T06:48:36;14.05;;;12.75;;
11608;SDS011;5860;52.018;8.536;2023-06-22T06:51:03;13.35;;;11.95;;
11608;SDS011;5860;52.018;8.536;2023-06-22T06:53:30;13.25;;;11.93;;
11608;SDS011;5860;52.018;8.536;2023-06-22T06:55:57;14.07;;;12.13;;
11608;SDS011;5860;52.018;8.536;2023-06-22T06:58:24;13.68;;;12.27;;
11608;SDS011;5860;52.018;8.536;2023-06-22T07:00:51;14.45;;;12.45;;
11608;SDS011;5860;52.018;8.536;2023-06-22T07:03:18;14.10;;;12.68;;
11608;SDS011;5860;52.018;8.536;2023-06-22T07:05:45;13.65;;;12.27;;
11608;SDS011;5860;52.018;8.536;2023-06-22T07:08:11;13.07;;;11.77;;
11608;SDS011;5860;52.018;8.536;2023-06-22T07:10:38;14.75;;;11.38;;
11608;SDS011;5860;52.018;8.536;2023-06-22T07:13:05;12.70;;;11.40;;
11608;SDS011;5860;52.018;8.536;2023-06-22T07:15:32;12.95;;;11.68;;
11608;SDS011;5860;52.018;8.536;2023-06-22T07:17:59;13.00;;;11.85;;
11608;SDS011;5860;52.018;8.536;2023-06-22T07:20:26;13.15;;;11.90;;
11608;SDS011;5860;52.018;8.536;2023-06-22T07:22:54;14.35;;;12.15;;
11608;SDS011;5860;52.018;8.536;2023-06-22T07:25:20;14.82;;;12.23;;
11608;SDS011;5860;52.018;8.536;2023-06-22T07:27:57;12.75;;;11.55;;
11608;SDS011;5860;52.018;8.536;2023-06-22T07:30:29;14.45;;;12.95;;
11608;SDS011;5860;52.018;8.536;2023-06-22T07:32:59;14.55;;;13.15;;
11608;SDS011;5860;52.018;8.536;2023-06-22T07:35:31;14.52;;;13.07;;
11608;SDS011;5860;52.018;8.536;2023-06-22T07:37:58;14.65;;;13.15;;
11608;SDS011;5860;52.018;8.536;2023-06-22T07:40:29;15.40;;;13.88;;
11608;SDS011;5860;52.018;8.536;2023-06-22T07:42:56;15.00;;;13.35;;
11608;SDS011;5860;52.018;8.536;2023-06-22T07:45:23;16.80;;;13.70;;
11608;SDS011;5860;52.018;8.536;2023-06-22T07:47:50;15.65;;;14.05;;
11608;SDS011;5860;52.018;8.536;2023-06-22T07:50:17;15.85;;;14.32;;
11608;SDS011;5860;52.018;8.536;2023-06-22T07:52:44;14.20;;;12.80;;
11608;SDS011;5860;52.018;8.536;2023-06-22T07:55:12;15.43;;;13.82;;
11608;SDS011;5860;52.018;8.536;2023-06-22T07:57:38;14.32;;;12.98;;
11608;SDS011;5860;52.018;8.536;2023-06-22T08:00:08;15.35;;;13.80;;
11608;SDS011;5860;52.018;8.536;2023-06-22T08:02:42;15.27;;;13.35;;
11608;SDS011;5860;52.018;8.536;2023-06-22T08:05:11;15.57;;;13.98;;
11608;SDS011;5860;52.018;8.536;2023-06-22T08:07:47;15.50;;;13.95;;
11608;SDS011;5860;52.018;8.536;2023-06-22T08:10:15;15.45;;;13.95;;
11608;SDS011;5860;52.018;8.536;2023-06-22T08:12:42;15.77;;;14.25;;
11608;SDS011;5860;52.018;8.536;2023-06-22T08:15:09;16.13;;;14.48;;
11608;SDS011;5860;52.018;8.536;2023-06-22T08:17:40;16.27;;;14.77;;
11608;SDS011;5860;52.018;8.536;2023-06-22T08:20:07;15.13;;;13.57;;
11608;SDS011;5860;52.018;8.536;2023-06-22T08:22:41;15.60;;;14.07;;
11608;SDS011;5860;52.018;8.536;2023-06-22T08:25:08;15.27;;;13.32;;
11608;SDS011;5860;52.018;8.536;2023-06-22T08:27:36;16.23;;;14.60;;
11608;SDS011;5860;52.018;8.536;2023-06-22T08:30:03;15.93;;;14.32;;
11608;SDS011;5860;52.018;8.536;2023-06-22T08:32:30;16.48;;;14.75;;
11608;SDS011;5860;52.018;8.536;2023-06-22T08:34:59;14.75;;;13.05;;
11608;SDS011;5860;52.018;8.536;2023-06-22T08:37:26;15.35;;;13.57;;
11608;SDS011;5860;52.018;8.536;2023-06-22T08:40:02;15.10;;;13.70;;
11608;SDS011;5860;52.018;8.536;2023-06-22T08:42:35;15.10;;;13.63;;
11608;SDS011;5860;52.018;8.536;2023-06-22T08:45:03;16.20;;;13.23;;
11608;SDS011;5860;52.018;8.536;2023-06-22T08:47:30;14.88;;;12.80;;
11608;SDS011;5860;52.018;8.536;2023-06-22T08:49:57;14.23;;;12.80;;
11608;SDS011;5860;52.018;8.536;2023-06-22T08:52:24;14.75;;;13.27;;
11608;SDS011;5860;52.018;8.536;2023-06-22T08:54:52;13.63;;;12.43;;
11608;SDS011;5860;52.018;8.536;2023-06-22T08:57:20;14.38;;;12.68;;
11608;SDS011;5860;52.018;8.536;2023-06-22T08:59:47;15.20;;;13.30;;
11608;SDS011;5860;52.018;8.536;2023-06-22T09:02:14;13.52;;;12.32;;
11608;SDS011;5860;52.018;8.536;2023-06-22T09:04:41;14.57;;;13.27;;
11608;SDS011;5860;52.018;8.536;2023-06-22T09:07:08;13.05;;;11.82;;
11608;SDS011;5860;52.018;8.536;2023-06-22T09:09:36;15.38;;;11.80;;
11608;SDS011;5860;52.018;8.536;2023-06-22T09:12:03;13.80;;;12.50;;
11608;SDS011;5860;52.018;8.536;2023-06-22T09:14:30;14.40;;;12.90;;
11608;SDS011;5860;52.018;8.536;2023-06-22T09:16:57;12.05;;;10.93;;
11608;SDS011;5860;52.018;8.536;2023-06-22T09:19:24;13.25;;;11.20;;
11608;SDS011;5860;52.018;8.536;2023-06-22T09:21:51;13.30;;;11.98;;
11608;SDS011;5860;52.018;8.536;2023-06-22T09:24:18;15.07;;;12.85;;
11608;SDS011;5860;52.018;8.536;2023-06-22T09:26:45;13.95;;;12.55;;
11608;SDS011;5860;52.018;8.536;2023-06-22T09:29:12;12.10;;;11.00;;
11608;SDS011;5860;52.018;8.536;2023-06-22T09:31:39;13.30;;;11.57;;
11608;SDS011;5860;52.018;8.536;2023-06-22T09:34:06;12.50;;;11.25;;
11608;SDS011;5860;52.018;8.536;2023-06-22T09:36:33;12.02;;;10.82;;
11608;SDS011;5860;52.018;8.536;2023-06-22T09:39:00;10.85;;;9.70;;
11608;SDS011;5860;52.018;8.536;2023-06-22T09:41:32;11.55;;;10.43;;
11608;SDS011;5860;52.018;8.536;2023-06-22T09:43:59;9.75;;;8.85;;
11608;SDS011;5860;52.018;8.536;2023-06-22T09:46:26;10.18;;;8.95;;
11608;SDS011;5860;52.018;8.536;2023-06-22T09:48:53;9.88;;;8.98;;
11608;SDS011;5860;52.018;8.536;2023-06-22T09:51:20;8.63;;;7.82;;
11608;SDS011;5860;52.018;8.536;2023-06-22T09:53:48;9.02;;;8.13;;
11608;SDS011;5860;52.018;8.536;2023-06-22T09:56:15;9.55;;;8.70;;
11608;SDS011;5860;52.018;8.536;2023-06-22T09:58:42;9.65;;;8.75;;
11608;SDS011;5860;52.018;8.536;2023-06-22T10:01:09;9.02;;;8.23;;
11608;SDS011;5860;52.018;8.536;2023-06-22T10:03:36;9.35;;;8.63;;
11608;SDS011;5860;52.018;8.536;2023-06-22T10:06:04;10.73;;;9.65;;
11608;SDS011;5860;52.018;8.536;2023-06-22T10:08:31;10.60;;;9.40;;
11608;SDS011;5860;52.018;8.536;2023-06-22T10:10:58;9.68;;;8.77;;
11608;SDS011;5860;52.018;8.536;2023-06-22T10:13:24;10.00;;;9.10;;
11608;SDS011;5860;52.018;8.536;2023-06-22T10:15:51;10.13;;;8.57;;
11608;SDS011;5860;52.018;8.536;2023-06-22T10:18:19;10.20;;;9.20;;
11608;SDS011;5860;52.018;8.536;2023-06-22T10:20:47;10.50;;;9.60;;
11608;SDS011;5860;52.018;8.536;2023-06-22T10:23:18;10.60;;;9.60;;
11608;SDS011;5860;52.018;8.536;2023-06-22T10:25:45;9.50;;;8.70;;
11608;SDS011;5860;52.018;8.536;2023-06-22T10:28:12;10.27;;;9.27;;
11608;SDS011;5860;52.018;8.536;2023-06-22T10:30:39;10.82;;;9.93;;
11608;SDS011;5860;52.018;8.536;2023-06-22T10:33:11;10.40;;;9.60;;
11608;SDS011;5860;52.018;8.536;2023-06-22T10:35:38;10.00;;;9.00;;
11608;SDS011;5860;52.018;8.536;2023-06-22T10:38:05;9.77;;;8.90;;
11608;SDS011;5860;52.018;8.536;2023-06-22T10:40:33;10.23;;;9.32;;
11608;SDS011;5860;52.018;8.536;2023-06-22T10:43:00;10.52;;;9.43;;
11608;SDS011;5860;52.018;8.536;2023-06-22T10:45:27;9.45;;;8.55;;
11608;SDS011;5860;52.018;8.536;2023-06-22T10:47:55;9.45;;;8.68;;
11608;SDS011;5860;52.018;8.536;2023-06-22T10:50:22;9.48;;;8.55;;
11608;SDS011;5860;52.018;8.536;2023-06-22T10:52:51;9.20;;;8.27;;
11608;SDS011;5860;52.018;8.536;2023-06-22T10:55:18;9.60;;;8.70;;
11608;SDS011;5860;52.018;8.536;2023-06-22T10:57:44;8.95;;;7.97;;
11608;SDS011;5860;52.018;8.536;2023-06-22T11:00:14;9.35;;;8.55;;
11608;SDS011;5860;52.018;8.536;2023-06-22T11:02:42;9.40;;;8.32;;
11608;SDS011;5860;52.018;8.536;2023-06-22T11:05:10;8.30;;;7.60;;
11608;SDS011;5860;52.018;8.536;2023-06-22T11:07:41;10.50;;;8.80;;
11608;SDS011;5860;52.018;8.536;2023-06-22T11:10:14;9.52;;;8.63;;
11608;SDS011;5860;52.018;8.536;2023-06-22T11:12:41;10.15;;;8.05;;
11608;SDS011;5860;52.018;8.536;2023-06-22T11:15:09;8.38;;;7.57;;
11608;SDS011;5860;52.018;8.536;2023-06-22T11:17:36;8.63;;;7.85;;
11608;SDS011;5860;52.018;8.536;2023-06-22T11:20:04;8.52;;;7.68;;
11608;SDS011;5860;52.018;8.536;2023-06-22T11:22:38;8.88;;;8.00;;
11608;SDS011;5860;52.018;8.536;2023-06-22T11:25:08;9.20;;;8.40;;
11608;SDS011;5860;52.018;8.536;2023-06-22T11:27:37;11.20;;;10.02;;
11608;SDS011;5860;52.018;8.536;2023-06-22T11:30:04;11.63;;;10.02;;
11608;SDS011;5860;52.018;8.536;2023-06-22T11:32:31;11.15;;;10.25;;
11608;SDS011;5860;52.018;8.536;2023-06-22T11:34:59;11.07;;;9.45;;
11608;SDS011;5860;52.018;8.536;2023-06-22T11:37:25;11.10;;;10.02;;
11608;SDS011;5860;52.018;8.536;2023-06-22T11:39:52;9.93;;;8.93;;
11608;SDS011;5860;52.018;8.536;2023-06-22T11:42:32;9.68;;;8.88;;
11608;SDS011;5860;52.018;8.536;2023-06-22T11:45:00;10.57;;;9.50;;
11608;SDS011;5860;52.018;8.536;2023-06-22T11:47:28;9.20;;;8.10;;
11608;SDS011;5860;52.018;8.536;2023-06-22T11:49:55;7.65;;;6.97;;
11608;SDS011;5860;52.018;8.536;2023-06-22T11:52:22;9.65;;;8.63;;
11608;SDS011;5860;52.018;8.536;2023-06-22T11:54:49;9.68;;;8.80;;
11608;SDS011;5860;52.018;8.536;2023-06-22T11:57:16;10.82;;;9.75;;
11608;SDS011;5860;52.018;8.536;2023-06-22T11:59:43;10.30;;;9.40;;
11608;SDS011;5860;52.018;8.536;2023-06-22T12:02:10;9.98;;;9.13;;
11608;SDS011;5860;52.018;8.536;2023-06-22T12:04:37;10.82;;;9.82;;
11608;SDS011;5860;52.018;8.536;2023-06-22T12:07:04;10.13;;;9.10;;
11608;SDS011;5860;52.018;8.536;2023-06-22T12:09:31;10.10;;;8.98;;
11608;SDS011;5860;52.018;8.536;2023-06-22T12:11:57;9.90;;;9.00;;
11608;SDS011;5860;52.018;8.536;2023-06-22T12:14:24;10.68;;;9.57;;
11608;SDS011;5860;52.018;8.536;2023-06-22T12:16:51;11.48;;;8.55;;
11608;SDS011;5860;52.018;8.536;2023-06-22T12:19:18;10.15;;;9.10;;
11608;SDS011;5860;52.018;8.536;2023-06-22T12:21:45;10.52;;;9.57;;
11608;SDS011;5860;52.018;8.536;2023-06-22T12:24:12;10.05;;;9.15;;
11608;SDS011;5860;52.018;8.536;2023-06-22T12:26:39;10.40;;;9.38;;
11608;SDS011;5860;52.018;8.536;2023-06-22T12:29:06;9.73;;;8.90;;
11608;SDS011;5860;52.018;8.536;2023-06-22T12:31:33;9.70;;;8.77;;
11608;SDS011;5860;52.018;8.536;2023-06-22T12:34:00;10.82;;;9.73;;
11608;SDS011;5860;52.018;8.536;2023-06-22T12:36:27;9.70;;;8.80;;
11608;SDS011;5860;52.018;8.536;2023-06-22T12:38:54;11.48;;;9.38;;
11608;SDS011;5860;52.018;8.536;2023-06-22T12:41:21;12.93;;;11.07;;
11608;SDS011;5860;52.018;8.536;2023-06-22T12:43:48;11.70;;;10.60;;
11608;SDS011;5860;52.018;8.536;2023-06-22T12:46:15;11.75;;;10.75;;
11608;SDS011;5860;52.018;8.536;2023-06-22T12:48:42;13.27;;;11.88;;
11608;SDS011;5860;52.018;8.536;2023-06-22T12:51:09;12.52;;;11.27;;
11608;SDS011;5860;52.018;8.536;2023-06-22T12:53:36;13.05;;;11.73;;
11608;SDS011;5860;52.018;8.536;2023-06-22T12:56:03;12.73;;;11.52;;
11608;SDS011;5860;52.018;8.536;2023-06-22T12:58:30;13.35;;;12.15;;
11608;SDS011;5860;52.018;8.536;2023-06-22T13:00:57;14.23;;;12.73;;
11608;SDS011;5860;52.018;8.536;2023-06-22T13:03:24;14.60;;;13.20;;
11608;SDS011;5860;52.018;8.536;2023-06-22T13:05:53;15.10;;;13.60;;
11608;SDS011;5860;52.018;8.536;2023-06-22T13:08:20;15.75;;;13.88;;
11608;SDS011;5860;52.018;8.536;2023-06-22T13:10:47;15.13;;;13.73;;
11608;SDS011;5860;52.018;8.536;2023-06-22T13:13:14;17.23;;;14.75;;
11608;SDS011;5860;52.018;8.536;2023-06-22T13:15:41;16.80;;;15.20;;
11608;SDS011;5860;52.018;8.536;2023-06-22T13:18:07;16.92;;;15.13;;
11608;SDS011;5860;52.018;8.536;2023-06-22T13:20:35;17.10;;;15.50;;
11608;SDS011;5860;52.018;8.536;2023-06-22T13:23:02;18.65;;;16.38;;
11608;SDS011;5860;52.018;8.536;2023-06-22T13:25:29;18.83;;;17.02;;
11608;SDS011;5860;52.018;8.536;2023-06-22T13:27:56;18.75;;;16.88;;
11608;SDS011;5860;52.018;8.536;2023-06-22T13:30:23;20.02;;;17.92;;
11608;SDS011;5860;52.018;8.536;2023-06-22T13:32:50;19.77;;;17.77;;
11608;SDS011;5860;52.018;8.536;2023-06-22T13:35:17;19.45;;;17.42;;
11608;SDS011;5860;52.018;8.536;2023-06-22T13:37:44;21.10;;;19.00;;
11608;SDS011;5860;52.018;8.536;2023-06-22T13:40:11;19.67;;;17.67;;
11608;SDS011;5860;52.018;8.536;2023-06-22T13:42:38;21.98;;;19.67;;
11608;SDS011;5860;52.018;8.536;2023-06-22T13:45:05;24.40;;;21.92;;
11608;SDS011;5860;52.018;8.536;2023-06-22T13:47:33;24.98;;;22.60;;
11608;SDS011;5860;52.018;8.536;2023-06-22T13:50:00;25.90;;;23.27;;
11608;SDS011;5860;52.018;8.536;2023-06-22T13:52:27;27.50;;;24.52;;
11608;SDS011;5860;52.018;8.536;2023-06-22T13:54:54;28.88;;;25.92;;
11608;SDS011;5860;52.018;8.536;2023-06-22T13:57:21;31.23;;;28.00;;
11608;SDS011;5860;52.018;8.536;2023-06-22T13:59:48;31.95;;;28.65;;
11608;SDS011;5860;52.018;8.536;2023-06-22T14:02:15;32.67;;;29.35;;
11608;SDS011;5860;52.018;8.536;2023-06-22T14:04:42;35.63;;;31.85;;
11608;SDS011;5860;52.018;8.536;2023-06-22T14:07:09;35.25;;;31.55;;
11608;SDS011;5860;52.018;8.536;2023-06-22T14:09:36;34.92;;;31.33;;
11608;SDS011;5860;52.018;8.536;2023-06-22T14:12:04;34.25;;;30.75;;
11608;SDS011;5860;52.018;8.536;2023-06-22T14:14:32;30.48;;;27.45;;
11608;SDS011;5860;52.018;8.536;2023-06-22T14:16:59;30.27;;;27.10;;
11608;SDS011;5860;52.018;8.536;2023-06-22T14:19:27;27.00;;;24.20;;
11608;SDS011;5860;52.018;8.536;2023-06-22T14:21:54;28.15;;;25.35;;
11608;SDS011;5860;52.018;8.536;2023-06-22T14:24:20;28.02;;;25.05;;
11608;SDS011;5860;52.018;8.536;2023-06-22T14:26:51;27.65;;;24.95;;
11608;SDS011;5860;52.018;8.536;2023-06-22T14:29:17;30.00;;;27.00;;
11608;SDS011;5860;52.018;8.536;2023-06-22T14:31:45;31.02;;;27.88;;
11608;SDS011;5860;52.018;8.536;2023-06-22T14:34:13;32.95;;;29.50;;
11608;SDS011;5860;52.018;8.536;2023-06-22T14:36:40;30.80;;;27.60;;
11608;SDS011;5860;52.018;8.536;2023-06-22T14:39:07;31.63;;;28.30;;
11608;SDS011;5860;52.018;8.536;2023-06-22T14:41:34;30.10;;;27.02;;
11608;SDS011;5860;52.018;8.536;2023-06-22T14:44:01;32.13;;;28.67;;
11608;SDS011;5860;52.018;8.536;2023-06-22T14:46:28;33.30;;;29.73;;